Time;durP1;ratioP1;P1;durP2;ratioP2;P2;SDS_P1;SDS_P2;PMS_P1;PMS_P2;Temp;Humidity;BMP_temperature;BMP_pressure;BME280_temperature;BME280_humidity;BME280_pressure;Samples;Min_cycle;Max_cycle;Signal;HPM_P1;HPM_P2
2021/05/26 00:00:55;;;;;;;7.85;2.47;;;;;;;13.86;85.63;99547.83;1736226;81;21077;-69
2021/05/26 00:03:23;;;;;;;4.97;2.47;;;;;;;13.85;85.89;99553.72;1718651;81;21005;-69
2021/05/26 00:05:50;;;;;;;5.95;2.77;;;;;;;13.82;86.19;99546.92;1725338;81;20898;-71
2021/05/26 00:08:32;;;;;;;4.40;2.65;;;;;;;13.80;86.39;99547.83;1719287;81;21032;-71
2021/05/26 00:11:12;;;;;;;5.05;2.42;;;;;;;13.77;86.76;99537.47;1721885;82;20894;-71
2021/05/26 00:13:42;;;;;;;4.92;2.35;;;;;;;13.77;87.07;99540.22;1718185;82;20919;-70
2021/05/26 00:16:12;;;;;;;4.12;2.72;;;;;;;13.78;87.17;99538.27;1685732;83;20918;-70
2021/05/26 00:18:40;;;;;;;4.95;2.67;;;;;;;13.80;87.20;99540.93;1729727;82;20922;-69
2021/05/26 00:21:08;;;;;;;5.33;2.70;;;;;;;13.83;87.17;99538.88;1694640;82;21002;-69
2021/05/26 00:23:42;;;;;;;5.60;3.05;;;;;;;13.87;87.12;99537.03;1726664;82;20994;-69
2021/05/26 00:26:08;;;;;;;4.22;3.10;;;;;;;13.90;87.14;99539.69;1715447;82;21031;-69
2021/05/26 00:28:35;;;;;;;7.78;3.05;;;;;;;13.89;87.13;99531.98;1683686;82;21026;-70
2021/05/26 00:31:06;;;;;;;7.50;2.95;;;;;;;13.90;87.22;99538.30;1692817;84;21145;-69
2021/05/26 00:33:33;;;;;;;6.83;2.80;;;;;;;13.88;87.31;99528.98;1732278;80;20962;-70
2021/05/26 00:35:59;;;;;;;9.70;3.52;;;;;;;13.89;87.48;99529.80;1735842;81;21636;-70
2021/05/26 00:38:29;;;;;;;3.25;2.72;;;;;;;13.88;87.60;99538.64;1735157;81;21122;-70
2021/05/26 00:40:57;;;;;;;4.95;2.87;;;;;;;13.89;87.75;99536.69;1739127;81;21615;-71
2021/05/26 00:43:25;;;;;;;4.65;3.10;;;;;;;13.89;87.90;99546.34;1723062;81;20930;-70
2021/05/26 00:45:51;;;;;;;6.67;3.25;;;;;;;13.88;87.90;99540.02;1695469;81;20929;-70
2021/05/26 00:48:18;;;;;;;9.15;4.08;;;;;;;13.88;87.83;99542.78;1729719;80;20899;-70
2021/05/26 00:50:47;;;;;;;10.58;3.52;;;;;;;13.88;87.86;99539.22;1741941;81;21057;-70
2021/05/26 00:53:18;;;;;;;7.85;3.58;;;;;;;13.87;87.82;99533.46;1725730;83;21540;-70
2021/05/26 00:55:53;;;;;;;10.15;3.98;;;;;;;13.84;87.66;99532.22;1694707;82;20867;-69
2021/05/26 00:58:19;;;;;;;5.62;3.58;;;;;;;13.77;87.63;99530.56;1736641;82;20977;-69
2021/05/26 01:00:56;;;;;;;8.20;3.77;;;;;;;13.72;87.85;99523.06;1703931;82;20903;-69
2021/05/26 01:03:29;;;;;;;5.50;3.47;;;;;;;13.65;87.74;99519.47;1726924;82;21073;-69
2021/05/26 01:05:57;;;;;;;11.43;3.70;;;;;;;13.59;88.21;99518.05;1724364;82;21020;-68
2021/05/26 01:08:27;;;;;;;9.78;4.62;;;;;;;13.55;88.43;99512.41;1717603;82;20906;-68
2021/05/26 01:10:59;;;;;;;5.50;3.12;;;;;;;13.53;88.74;99511.93;1730206;82;21005;-69
2021/05/26 01:13:30;;;;;;;5.83;2.85;;;;;;;13.48;88.64;99503.05;1684018;83;20888;-69
2021/05/26 01:16:04;;;;;;;7.05;3.10;;;;;;;13.43;88.67;99501.87;1720641;82;21201;-69
2021/05/26 01:18:34;;;;;;;4.42;3.10;;;;;;;13.37;88.88;99506.77;1721836;81;20988;-68
2021/05/26 01:21:18;;;;;;;6.47;2.77;;;;;;;13.31;89.10;99508.11;1721143;82;20938;-68
2021/05/26 01:24:00;;;;;;;4.75;3.15;;;;;;;13.25;89.26;99495.70;1734625;81;20978;-69
2021/05/26 01:26:56;;;;;;;4.17;2.87;;;;;;;13.19;89.59;99502.55;1730879;80;20926;-69
2021/05/26 01:29:13;;;;;;;4.30;3.30;;;;;;;13.16;89.85;99496.32;1709386;81;21105;-69
2021/05/26 01:31:43;;;;;;;6.28;2.80;;;;;;;13.12;90.18;99494.77;1739171;80;21009;-70
2021/05/26 01:34:13;;;;;;;5.10;2.92;;;;;;;13.10;90.88;99495.67;1736080;81;21380;-69
2021/05/26 01:36:46;;;;;;;4.37;2.87;;;;;;;13.13;91.68;99496.95;1746108;80;21041;-69
2021/05/26 01:39:28;;;;;;;4.33;3.17;;;;;;;13.20;92.17;99494.52;1719875;82;21507;-70
2021/05/26 01:42:00;;;;;;;5.08;3.27;;;;;;;13.27;92.35;99488.47;1717261;81;21105;-68
2021/05/26 01:44:34;;;;;;;5.12;3.12;;;;;;;13.31;92.45;99489.38;1726149;81;21010;-68
2021/05/26 01:49:39;;;;;;;4.08;3.20;;;;;;;13.38;92.70;99479.44;1713728;81;20920;-69
2021/05/26 01:52:10;;;;;;;6.70;3.67;;;;;;;13.44;92.91;99484.18;1743653;81;20977;-70
2021/05/26 01:54:45;;;;;;;8.18;3.10;;;;;;;13.46;93.02;99473.63;1748238;81;21103;-68
2021/05/26 01:57:13;;;;;;;5.50;3.23;;;;;;;13.51;93.12;99474.80;1700469;82;21104;-70
2021/05/26 01:59:46;;;;;;;6.03;3.33;;;;;;;13.56;93.14;99477.36;1732291;80;21010;-70
2021/05/26 02:02:15;;;;;;;7.97;3.60;;;;;;;13.61;93.09;99474.39;1744351;81;21021;-69
2021/05/26 02:04:54;;;;;;;5.00;3.20;;;;;;;13.66;93.01;99477.52;1721324;81;21572;-68
2021/05/26 02:07:30;;;;;;;5.80;3.17;;;;;;;13.68;92.97;99476.04;1738018;81;21081;-67
2021/05/26 02:09:57;;;;;;;4.87;3.40;;;;;;;13.71;93.18;99462.95;1717855;81;20901;-67
2021/05/26 02:12:32;;;;;;;6.72;3.62;;;;;;;13.71;93.42;99456.05;1712060;81;20910;-68
2021/05/26 02:15:09;;;;;;;7.75;3.90;;;;;;;13.72;93.55;99459.05;1736183;81;21491;-68
2021/05/26 02:17:41;;;;;;;7.53;4.15;;;;;;;13.76;93.54;99455.84;1737221;81;20927;-68
2021/05/26 02:20:15;;;;;;;7.33;4.17;;;;;;;13.79;93.49;99448.27;1714590;82;21117;-68
2021/05/26 02:22:42;;;;;;;5.65;3.52;;;;;;;13.84;93.53;99457.72;1737835;81;21069;-69
2021/05/26 02:25:16;;;;;;;6.30;4.30;;;;;;;13.90;93.38;99476.22;1719025;82;20953;-68
2021/05/26 02:27:47;;;;;;;5.17;3.80;;;;;;;13.98;93.06;99483.61;1729507;82;20946;-68
2021/05/26 02:30:19;;;;;;;5.95;3.90;;;;;;;14.06;92.77;99480.53;1737905;80;20938;-68
2021/05/26 02:32:57;;;;;;;7.58;3.87;;;;;;;14.11;92.40;99479.74;1726451;81;20962;-68
2021/05/26 02:35:25;;;;;;;6.35;3.77;;;;;;;14.18;92.00;99479.19;1737373;82;20957;-68
2021/05/26 02:37:56;;;;;;;8.68;4.50;;;;;;;14.20;91.77;99482.41;1722232;81;21036;-67
2021/05/26 02:40:23;;;;;;;;;;;;;;;14.21;91.64;99474.36;1742367;81;21628;-67
2021/05/26 02:42:50;;;;;;;6.22;4.37;;;;;;;14.20;91.60;99479.66;1736368;80;20527;-66
2021/05/26 02:45:26;;;;;;;11.85;3.95;;;;;;;14.20;91.69;99490.70;1739614;81;21009;-67
2021/05/26 02:47:59;;;;;;;4.17;3.77;;;;;;;14.25;91.74;99488.30;1708245;82;20922;-67
2021/05/26 02:50:29;;;;;;;7.58;4.55;;;;;;;14.28;91.49;99486.23;1725973;81;21561;-66
2021/05/26 02:52:59;;;;;;;5.53;3.92;;;;;;;14.29;91.54;99487.84;1736827;81;20993;-65
2021/05/26 02:55:28;;;;;;;8.60;4.33;;;;;;;14.30;91.57;99479.22;1716992;82;21040;-68
2021/05/26 02:58:14;;;;;;;10.65;4.50;;;;;;;14.32;91.71;99483.83;1745048;82;21086;-68
2021/05/26 03:00:51;;;;;;;4.85;3.90;;;;;;;14.33;91.91;99472.20;1737703;80;21618;-68
2021/05/26 03:03:28;;;;;;;9.83;5.10;;;;;;;14.34;92.03;99477.39;1763351;79;20982;-67
2021/05/26 03:05:53;;;;;;;7.70;4.35;;;;;;;14.36;92.12;99489.47;1741781;81;21006;-68
2021/05/26 03:08:27;;;;;;;5.67;4.60;;;;;;;14.37;92.22;99500.17;1764780;80;21116;-69
2021/05/26 03:11:00;;;;;;;9.68;4.85;;;;;;;14.38;92.37;99516.98;1724821;81;21072;-69
2021/05/26 03:13:36;;;;;;;6.80;4.25;;;;;;;14.38;92.39;99529.41;1735042;81;21124;-67
2021/05/26 03:16:15;;;;;;;8.58;5.15;;;;;;;14.41;92.56;99537.04;1702248;81;20958;-71
2021/05/26 03:18:56;;;;;;;;;;;;;;;;;;;;;
2021/05/26 03:21:17;;;;;;;10.38;4.83;;;;;;;14.43;92.81;99536.70;1700453;82;20998;-67
2021/05/26 03:23:48;;;;;;;10.35;6.58;;;;;;;14.43;93.00;99536.70;1735099;81;21126;-71
2021/05/26 03:26:23;;;;;;;14.00;7.37;;;;;;;14.45;93.17;99552.33;1734404;81;20953;-71
2021/05/26 03:28:49;;;;;;;11.70;6.78;;;;;;;14.48;93.40;99558.55;1727794;82;20993;-70
2021/05/26 03:31:20;;;;;;;8.33;5.70;;;;;;;14.50;93.49;99557.06;1738807;81;20955;-70
2021/05/26 03:33:49;;;;;;;11.28;5.42;;;;;;;14.51;93.65;99563.39;1702015;81;20897;-70
2021/05/26 03:36:28;;;;;;;5.85;4.12;;;;;;;14.51;93.79;99566.16;1725591;80;20935;-69
2021/05/26 03:39:01;;;;;;;8.30;4.45;;;;;;;14.53;94.00;99579.05;1721594;82;20882;-70
2021/05/26 03:41:33;;;;;;;8.60;4.50;;;;;;;14.55;94.15;99578.13;1727495;82;21050;-71
2021/05/26 03:44:06;;;;;;;7.22;4.25;;;;;;;14.57;94.38;99600.70;1690056;82;20949;-71
2021/05/26 03:46:34;;;;;;;5.53;4.28;;;;;;;14.56;94.69;99579.75;1719139;82;21093;-70
2021/05/26 03:49:05;;;;;;;7.67;4.33;;;;;;;14.56;95.14;99588.61;1733386;82;21728;-71
2021/05/26 03:51:37;;;;;;;9.40;5.00;;;;;;;14.51;95.50;99589.06;1738546;81;21488;-74
2021/05/26 03:54:06;;;;;;;6.53;4.35;;;;;;;14.46;96.00;99586.51;1718449;82;20997;-72
2021/05/26 03:56:36;;;;;;;7.28;5.00;;;;;;;14.44;96.68;99573.61;1734804;81;21654;-72
2021/05/26 03:59:08;;;;;;;9.78;6.20;;;;;;;14.44;96.90;99562.56;1718598;81;20954;-69
2021/05/26 04:01:41;;;;;;;8.10;6.35;;;;;;;14.45;97.35;99566.94;1702726;83;21130;-70
2021/05/26 04:04:09;;;;;;;14.80;6.17;;;;;;;14.41;97.94;99577.62;1724213;82;21484;-70
2021/05/26 04:06:40;;;;;;;9.15;5.40;;;;;;;14.38;98.29;99571.41;1699023;83;20971;-71
2021/05/26 04:09:07;;;;;;;14.38;5.42;;;;;;;14.35;98.69;99574.84;1694678;83;21006;-72
2021/05/26 04:11:36;;;;;;;13.75;5.17;;;;;;;14.32;99.10;99573.57;1706777;83;20950;-72
2021/05/26 04:14:23;;;;;;;6.78;5.10;;;;;;;14.30;99.38;99570.91;1675280;85;21065;-70
2021/05/26 04:16:53;;;;;;;8.28;5.45;;;;;;;14.33;99.87;99556.42;1638531;85;21505;-72
2021/05/26 04:19:28;;;;;;;10.75;6.50;;;;;;;14.34;100.00;99561.61;1674252;85;20978;-71
2021/05/26 04:21:58;;;;;;;10.85;5.80;;;;;;;14.32;100.00;99574.95;1657734;85;21066;-69
2021/05/26 04:24:32;;;;;;;7.37;5.65;;;;;;;14.31;100.00;99565.63;1682282;84;20904;-69
2021/05/26 04:27:04;;;;;;;7.00;5.65;;;;;;;14.31;100.00;99573.34;1679117;85;21122;-69
2021/05/26 04:29:35;;;;;;;9.00;5.37;;;;;;;14.32;100.00;99579.09;1681199;84;20934;-70
2021/05/26 04:32:05;;;;;;;12.53;6.37;;;;;;;14.34;100.00;99586.46;1660790;85;20958;-69
2021/05/26 04:34:33;;;;;;;7.30;5.72;;;;;;;14.38;100.00;99596.26;1681218;83;21540;-69
2021/05/26 04:37:02;;;;;;;7.47;6.08;;;;;;;14.42;100.00;99595.27;1707975;81;20919;-70
2021/05/26 04:39:30;;;;;;;10.95;6.42;;;;;;;14.49;100.00;99596.07;1749188;81;21109;-69
2021/05/26 04:42:01;;;;;;;9.00;6.08;;;;;;;14.57;100.00;99582.75;1755240;81;20969;-68
2021/05/26 04:44:27;;;;;;;7.37;6.08;;;;;;;14.63;100.00;99577.81;1754393;81;21038;-69
2021/05/26 04:46:56;;;;;;;9.80;6.20;;;;;;;14.70;100.00;99570.58;1767893;81;20990;-68
2021/05/26 04:49:24;;;;;;;10.60;6.65;;;;;;;14.81;100.00;99564.03;1758275;80;20998;-68
2021/05/26 04:51:57;;;;;;;9.20;5.95;;;;;;;14.96;100.00;99568.89;1760522;80;21594;-68
2021/05/26 04:54:26;;;;;;;10.93;5.60;;;;;;;15.06;100.00;99575.89;1772976;79;20935;-69
2021/05/26 04:56:54;;;;;;;14.38;5.95;;;;;;;15.18;100.00;99586.39;1751740;80;20981;-69
2021/05/26 04:59:21;;;;;;;10.70;5.95;;;;;;;15.28;100.00;99588.47;1724594;81;21013;-69
2021/05/26 05:01:49;;;;;;;8.50;5.95;;;;;;;15.40;100.00;99591.23;1725192;83;20926;-69
2021/05/26 05:04:17;;;;;;;6.87;5.90;;;;;;;15.51;98.61;99586.27;1720797;82;21037;-69
2021/05/26 05:06:47;;;;;;;13.35;6.45;;;;;;;15.68;98.79;99583.02;1715384;82;20917;-69
2021/05/26 05:09:14;;;;;;;8.35;6.08;;;;;;;15.87;99.16;99593.48;1718479;82;20910;-69
2021/05/26 05:11:42;;;;;;;11.88;6.17;;;;;;;16.07;97.56;99593.89;1728351;81;21620;-69
2021/05/26 05:14:09;;;;;;;5.72;4.85;;;;;;;16.21;95.19;99579.62;1720857;82;20946;-69
2021/05/26 05:16:39;;;;;;;11.50;5.22;;;;;;;16.30;93.24;99582.46;1733288;82;21021;-69
2021/05/26 05:19:06;;;;;;;6.47;4.53;;;;;;;16.38;92.31;99581.51;1704331;82;21571;-69
2021/05/26 05:21:35;;;;;;;9.48;5.42;;;;;;;16.40;90.52;99585.31;1703937;82;21016;-68
2021/05/26 05:24:05;;;;;;;9.48;5.58;;;;;;;16.44;91.92;99591.17;1719040;82;21592;-68
2021/05/26 05:26:33;;;;;;;11.73;5.47;;;;;;;16.57;91.60;99592.50;1728493;80;21003;-70
2021/05/26 05:29:00;;;;;;;9.20;6.12;;;;;;;16.65;90.94;99597.91;1717927;82;21009;-69
2021/05/26 05:31:29;;;;;;;9.88;5.55;;;;;;;16.69;89.23;99602.98;1713728;82;20918;-71
2021/05/26 05:33:55;;;;;;;8.78;4.53;;;;;;;16.75;89.32;99607.68;1694120;82;21047;-70
2021/05/26 05:36:21;;;;;;;6.45;4.30;;;;;;;16.81;89.26;99614.55;1724650;82;21505;-71
2021/05/26 05:38:48;;;;;;;8.23;4.60;;;;;;;16.91;88.44;99614.61;1683409;84;20926;-81
2021/05/26 05:41:17;;;;;;;7.22;4.15;;;;;;;17.04;87.97;99619.72;1669597;84;21101;-68
2021/05/26 05:43:44;;;;;;;10.28;4.95;;;;;;;17.16;87.09;99614.09;1723492;82;20977;-69
2021/05/26 05:46:10;;;;;;;13.43;6.10;;;;;;;17.21;85.46;99619.14;1727863;82;21526;-71
2021/05/26 05:48:37;;;;;;;4.05;3.65;;;;;;;17.27;84.98;99622.68;1723612;82;21663;-79
2021/05/26 05:51:03;;;;;;;9.08;4.03;;;;;;;17.32;84.20;99621.61;1726484;82;21089;-75
2021/05/26 05:53:30;;;;;;;6.58;4.17;;;;;;;17.39;84.57;99628.11;1722481;82;21068;-75
2021/05/26 05:55:59;;;;;;;8.63;4.17;;;;;;;17.48;84.15;99626.53;1716338;83;21043;-82
2021/05/26 05:58:25;;;;;;;5.50;3.52;;;;;;;17.55;83.18;99625.31;1726496;83;20982;-73
2021/05/26 06:00:52;;;;;;;7.05;3.50;;;;;;;17.54;82.60;99631.23;1728319;83;21651;-72
2021/05/26 06:03:18;;;;;;;9.33;3.60;;;;;;;17.52;82.54;99631.59;1730024;83;21501;-73
2021/05/26 06:05:45;;;;;;;11.85;3.80;;;;;;;17.56;82.55;99636.64;1719879;82;21831;-72
2021/05/26 06:08:12;;;;;;;5.95;3.40;;;;;;;17.54;82.62;99641.75;1718191;82;21003;-70
2021/05/26 06:10:39;;;;;;;4.25;3.08;;;;;;;17.50;82.27;99640.86;1725380;82;21494;-87
2021/05/26 06:13:09;;;;;;;10.38;3.98;;;;;;;17.43;82.60;99647.03;1748774;81;21030;-82
2021/05/26 06:15:36;;;;;;;4.37;3.05;;;;;;;17.37;82.33;99652.63;1748994;79;21013;-81
2021/05/26 06:18:03;;;;;;;4.40;3.37;;;;;;;17.31;82.74;99653.29;1744262;80;21064;-67
2021/05/26 06:20:30;;;;;;;6.72;4.42;;;;;;;17.28;83.12;99658.16;1745324;81;21546;-69
2021/05/26 06:22:58;;;;;;;6.60;3.30;;;;;;;17.25;83.17;99647.78;1757188;81;20991;-66
2021/05/26 06:25:26;;;;;;;6.50;3.22;;;;;;;17.24;82.79;99655.88;1754309;79;21076;-69
2021/05/26 06:27:53;;;;;;;6.22;3.50;;;;;;;17.22;83.08;99653.46;1750714;79;21010;-71
2021/05/26 06:30:21;;;;;;;9.50;3.10;;;;;;;17.21;83.32;99654.62;1746663;79;21082;-72
2021/05/26 06:32:47;;;;;;;10.45;3.83;;;;;;;17.23;83.66;99657.84;1750621;80;20982;-77
2021/05/26 06:35:14;;;;;;;9.98;3.95;;;;;;;17.25;83.16;99661.66;1748034;80;21038;-74
2021/05/26 06:37:42;;;;;;;7.92;3.17;;;;;;;17.27;82.88;99660.72;1743966;80;21021;-76
2021/05/26 06:40:09;;;;;;;11.08;3.52;;;;;;;17.31;82.84;99671.33;1727721;81;20999;-75
2021/05/26 06:42:36;;;;;;;9.30;3.50;;;;;;;17.34;82.58;99673.35;1720728;80;21113;-73
2021/05/26 06:45:04;;;;;;;4.25;3.12;;;;;;;17.33;82.16;99675.94;1725916;80;20982;-75
2021/05/26 06:47:31;;;;;;;9.98;3.20;;;;;;;17.30;82.21;99669.71;1729688;81;20934;-74
2021/05/26 06:49:58;;;;;;;7.03;3.20;;;;;;;17.30;83.03;99671.09;1731621;81;20958;-72
2021/05/26 06:52:25;;;;;;;5.40;3.72;;;;;;;17.31;83.03;99676.88;1727125;80;20989;-80
2021/05/26 06:54:52;;;;;;;5.83;3.30;;;;;;;17.27;82.79;99681.52;1737015;81;21070;-75
2021/05/26 06:57:18;;;;;;;7.58;3.35;;;;;;;17.24;83.19;99683.63;1731486;80;21050;-78
2021/05/26 06:59:48;;;;;;;5.08;3.60;;;;;;;17.22;83.98;99684.56;1680932;83;22311;-81
2021/05/26 07:02:14;;;;;;;5.10;3.67;;;;;;;17.21;83.63;99685.14;1702048;83;21082;-70
2021/05/26 07:04:42;;;;;;;9.83;3.70;;;;;;;17.20;83.94;99668.86;1709089;83;20946;-71
2021/05/26 07:07:09;;;;;;;8.38;3.90;;;;;;;17.19;84.24;99670.02;1710252;83;21532;-74
2021/05/26 07:09:36;;;;;;;7.42;3.92;;;;;;;17.19;84.67;99669.44;1679694;83;21047;-75
2021/05/26 07:14:28;;;;;;;6.78;4.00;;;;;;;17.27;84.09;99675.39;1714585;83;20851;-71
2021/05/26 07:16:57;;;;;;;8.28;4.00;;;;;;;17.31;84.41;99677.67;1688251;83;20985;-69
2021/05/26 07:19:24;;;;;;;8.58;3.58;;;;;;;17.39;84.23;99674.47;1677730;84;21708;-69
2021/05/26 07:21:53;;;;;;;7.67;3.52;;;;;;;17.48;84.34;99673.72;1639504;84;20918;-71
2021/05/26 07:24:20;;;;;;;4.00;3.47;;;;;;;17.62;84.82;99672.67;1727048;82;20957;-68
2021/05/26 07:26:46;;;;;;;6.67;3.90;;;;;;;17.79;84.88;99677.89;1683598;83;21675;-71
2021/05/26 07:29:13;;;;;;;5.85;3.70;;;;;;;17.95;83.74;99677.02;1687382;83;21006;-71
2021/05/26 07:31:41;;;;;;;7.33;3.40;;;;;;;18.02;82.93;99674.41;1678287;83;21095;-73
2021/05/26 07:34:08;;;;;;;7.70;3.47;;;;;;;18.07;81.80;99683.85;1733807;81;22203;-71
2021/05/26 07:36:35;;;;;;;4.97;3.25;;;;;;;18.06;82.20;99685.02;1743692;81;20989;-69
2021/05/26 07:39:02;;;;;;;6.87;3.75;;;;;;;18.07;81.53;99691.60;1743349;81;20922;-70
2021/05/26 07:41:29;;;;;;;5.30;3.67;;;;;;;18.00;81.34;99696.19;1731552;81;20959;-71
2021/05/26 07:43:58;;;;;;;5.80;3.87;;;;;;;17.94;80.67;99692.88;1733644;82;21635;-69
2021/05/26 07:46:24;;;;;;;10.05;4.20;;;;;;;17.86;81.23;99700.85;1742851;81;21749;-69
2021/05/26 07:48:53;;;;;;;9.55;3.85;;;;;;;17.84;81.52;99694.05;1745308;81;21013;-69
2021/05/26 07:51:29;;;;;;;5.35;3.60;;;;;;;17.86;81.54;99689.74;1736388;82;21682;-70
2021/05/26 07:53:49;;;;;;;4.90;3.10;;;;;;;17.90;81.52;99689.25;1736374;82;21013;-70
2021/05/26 07:56:15;;;;;;;6.92;3.45;;;;;;;17.92;82.03;99691.05;1740823;82;21005;-69
2021/05/26 07:58:42;;;;;;;5.97;3.50;;;;;;;17.93;81.77;99696.83;1739957;82;21429;-69
2021/05/26 08:01:10;;;;;;;8.00;3.52;;;;;;;17.88;81.32;99696.33;1739401;82;20882;-68
2021/05/26 08:03:37;;;;;;;5.92;3.70;;;;;;;17.80;81.54;99693.97;1733967;81;20989;-69
2021/05/26 08:06:04;;;;;;;4.40;3.45;;;;;;;17.74;82.05;99692.04;1728175;82;21022;-68
2021/05/26 08:08:31;;;;;;;11.03;3.87;;;;;;;17.73;83.05;99697.95;1734874;82;22303;-71
2021/05/26 08:10:58;;;;;;;5.42;3.67;;;;;;;17.72;83.35;99697.15;1737216;82;21089;-69
2021/05/26 08:13:24;;;;;;;6.10;3.75;;;;;;;17.75;83.26;99694.23;1737392;82;20930;-70
2021/05/26 08:15:51;;;;;;;4.40;3.10;;;;;;;17.74;83.69;99690.66;1720023;82;20955;-70
2021/05/26 08:18:20;;;;;;;5.62;3.90;;;;;;;17.77;84.00;99684.97;1693441;82;20915;-70
2021/05/26 08:20:48;;;;;;;7.08;3.70;;;;;;;17.78;83.80;99687.38;1704105;83;21124;-70
2021/05/26 08:23:15;;;;;;;6.70;3.40;;;;;;;17.84;83.86;99695.44;1732952;82;22564;-69
2021/05/26 08:25:42;;;;;;;5.08;3.50;;;;;;;17.85;83.92;99701.21;1734069;81;21612;-70
2021/05/26 08:28:08;;;;;;;11.78;4.67;;;;;;;17.86;84.36;99697.27;1689228;83;20945;-69
2021/05/26 08:30:36;;;;;;;8.68;3.50;;;;;;;17.87;83.57;99698.88;1737524;81;20969;-69
2021/05/26 08:33:02;;;;;;;8.30;4.22;;;;;;;17.88;83.23;99696.33;1734940;82;21075;-69
2021/05/26 08:35:29;;;;;;;6.35;3.10;;;;;;;17.88;83.10;99706.05;1740552;82;21647;-70
2021/05/26 08:37:55;;;;;;;6.97;3.70;;;;;;;17.87;83.11;99703.05;1740635;82;21570;-69
2021/05/26 08:40:21;;;;;;;9.85;4.40;;;;;;;17.85;83.00;99701.21;1737718;82;21037;-70
2021/05/26 08:42:48;;;;;;;7.35;3.83;;;;;;;17.84;82.98;99707.34;1737449;82;21003;-69
2021/05/26 08:45:15;;;;;;;7.05;3.40;;;;;;;17.85;83.68;99706.77;1736460;82;21136;-69
2021/05/26 08:47:42;;;;;;;7.10;3.47;;;;;;;17.85;83.24;99705.38;1729876;82;20906;-69
2021/05/26 08:50:13;;;;;;;8.23;3.42;;;;;;;17.88;83.20;99706.05;1708243;82;20926;-69
2021/05/26 08:52:39;;;;;;;5.08;3.37;;;;;;;17.91;83.44;99699.77;1732755;81;21002;-69
2021/05/26 08:55:07;;;;;;;8.83;3.50;;;;;;;17.95;83.07;99696.47;1729572;81;21069;-69
2021/05/26 08:57:33;;;;;;;6.08;3.95;;;;;;;17.97;82.81;99703.85;1742555;81;21084;-69
2021/05/26 09:00:00;;;;;;;14.38;3.90;;;;;;;17.98;82.28;99708.23;1728158;81;21684;-70
2021/05/26 09:02:26;;;;;;;9.90;3.70;;;;;;;18.00;82.78;99706.71;1698005;82;20954;-74
2021/05/26 09:04:52;;;;;;;6.58;3.27;;;;;;;18.04;82.71;99719.30;1715430;82;21077;-78
2021/05/26 09:07:22;;;;;;;6.28;3.80;;;;;;;18.04;82.90;99722.88;1722194;82;21034;-69
2021/05/26 09:09:59;;;;;;;7.78;3.58;;;;;;;18.02;82.10;99721.63;1745912;81;21026;-70
2021/05/26 09:12:34;;;;;;;7.20;3.45;;;;;;;17.95;81.49;99728.41;1723173;82;20962;-70
2021/05/26 09:15:10;;;;;;;7.25;3.37;;;;;;;17.87;81.73;99728.84;1732104;82;20911;-70
2021/05/26 09:17:38;;;;;;;6.58;3.40;;;;;;;17.81;81.42;99726.12;1723173;82;21122;-70
2021/05/26 09:20:26;;;;;;;5.85;4.17;;;;;;;17.76;81.83;99735.52;1736523;81;21037;-69
2021/05/26 09:23:08;;;;;;;8.85;3.90;;;;;;;17.71;82.02;99739.16;1727423;82;21136;-69
2021/05/26 09:25:40;;;;;;;8.10;4.45;;;;;;;17.71;82.58;99739.96;1727473;83;20962;-70
2021/05/26 09:28:18;;;;;;;3.50;2.72;;;;;;;17.65;82.41;99751.11;1722344;82;21621;-69
2021/05/26 09:30:52;;;;;;;8.00;2.67;;;;;;;17.50;82.87;99748.52;1713774;82;21028;-70
2021/05/26 09:33:27;;;;;;;8.20;5.65;;;;;;;17.24;84.06;99744.08;1690391;82;20966;-69
2021/05/26 09:36:12;;;;;;;5.00;2.62;;;;;;;17.01;84.85;99749.97;1688475;83;21140;-71
2021/05/26 09:38:43;;;;;;;3.20;1.98;;;;;;;16.82;85.75;99749.23;1670837;84;21620;-70
2021/05/26 09:41:23;;;;;;;3.92;2.70;;;;;;;16.67;86.58;99750.81;1672771;84;21892;-74
2021/05/26 09:43:54;;;;;;;6.85;3.45;;;;;;;16.59;87.57;99757.85;1674174;84;21006;-77
2021/05/26 09:46:33;;;;;;;5.65;3.75;;;;;;;16.50;88.17;99754.64;1676382;84;20968;-79
2021/05/26 09:49:03;;;;;;;6.25;5.30;;;;;;;16.44;88.87;99757.42;1680403;85;21648;-81
2021/05/26 09:51:31;;;;;;;8.25;6.00;;;;;;;16.40;89.59;99758.47;1675320;84;21105;-85
2021/05/26 09:54:11;;;;;;;11.08;8.38;;;;;;;16.40;90.03;99761.23;1668899;83;21034;-84
2021/05/26 09:56:41;;;;;;;9.65;7.00;;;;;;;16.40;90.16;99755.70;1688025;82;20995;-90
2021/05/26 09:59:08;;;;;;;16.45;13.18;;;;;;;16.41;90.36;99755.92;1673596;83;21161;-82
2021/05/26 10:01:35;;;;;;;12.98;11.53;;;;;;;16.41;90.80;99755.34;1680805;84;21083;-79
2021/05/26 10:04:02;;;;;;;17.25;14.13;;;;;;;16.46;91.01;99755.69;1678030;83;20937;-78
2021/05/26 10:06:29;;;;;;;9.65;7.95;;;;;;;16.51;91.05;99753.48;1687404;83;20942;-77
2021/05/26 10:09:14;;;;;;;8.03;6.97;;;;;;;16.53;90.42;99752.33;1675310;83;21084;-75
2021/05/26 10:11:53;;;;;;;13.25;10.68;;;;;;;16.49;90.70;99748.87;1668747;83;21575;-77
2021/05/26 10:14:23;;;;;;;13.65;10.65;;;;;;;16.52;90.96;99755.67;1694913;83;21008;-76
2021/05/26 10:16:54;;;;;;;8.48;7.47;;;;;;;16.56;91.00;99753.01;1690004;82;21022;-75
2021/05/26 10:19:23;;;;;;;8.13;7.28;;;;;;;16.61;91.07;99750.80;1730043;81;21095;-76
2021/05/26 10:21:51;;;;;;;11.85;7.97;;;;;;;16.67;91.07;99755.55;1737105;81;20997;-76
2021/05/26 10:24:19;;;;;;;8.10;6.60;;;;;;;16.72;90.96;99751.95;1733377;81;21144;-77
2021/05/26 10:27:00;;;;;;;6.17;4.70;;;;;;;16.74;90.71;99752.41;1736106;81;21746;-77
2021/05/26 10:29:38;;;;;;;4.80;2.83;;;;;;;16.80;91.11;99749.59;1688462;83;21124;-76
2021/05/26 10:32:19;;;;;;;6.83;5.17;;;;;;;16.84;90.37;99749.69;1687081;83;21044;-77
2021/05/26 10:34:52;;;;;;;8.78;6.10;;;;;;;16.86;90.33;99743.79;1666235;83;21054;-77
2021/05/26 10:37:33;;;;;;;7.30;5.30;;;;;;;16.89;89.95;99736.96;1685434;83;22359;-77
2021/05/26 10:40:02;;;;;;;8.05;3.25;;;;;;;16.90;90.25;99741.34;1730831;81;21911;-79
2021/05/26 10:42:35;;;;;;;6.22;4.90;;;;;;;16.96;90.34;99734.97;1733490;81;21076;-78
2021/05/26 10:45:10;;;;;;;7.43;3.20;;;;;;;17.02;90.60;99731.59;1741470;82;20881;-74
2021/05/26 10:47:43;;;;;;;4.50;2.87;;;;;;;17.12;90.49;99724.14;1699237;81;21923;-75
2021/05/26 10:50:17;;;;;;;3.98;2.42;;;;;;;17.16;89.77;99720.88;1679918;83;21096;-81
2021/05/26 10:53:02;;;;;;;2.98;2.45;;;;;;;17.24;89.82;99719.69;1656862;85;21053;-80
2021/05/26 10:55:50;;;;;;;4.12;2.75;;;;;;;17.30;89.81;99712.13;1668537;83;20959;-77
2021/05/26 10:58:35;;;;;;;3.65;2.60;;;;;;;17.36;89.60;99709.88;1730509;80;21088;-77
2021/05/26 11:01:08;;;;;;;4.20;3.22;;;;;;;17.42;89.26;99700.92;1749088;80;21037;-78
2021/05/26 11:03:36;;;;;;;8.35;2.85;;;;;;;17.46;89.24;99696.86;1745635;81;21034;-78
2021/05/26 11:06:30;;;;;;;3.17;2.75;;;;;;;17.50;89.03;99700.53;1741442;81;21674;-79
2021/05/26 11:08:57;;;;;;;3.70;2.55;;;;;;;17.54;88.67;99697.84;1739715;81;20875;-77
2021/05/26 11:11:34;;;;;;;6.08;2.50;;;;;;;17.55;88.53;99703.03;1723674;82;20970;-79
2021/05/26 11:14:11;;;;;;;4.22;2.77;;;;;;;17.60;88.28;99706.13;1720492;82;20961;-79
2021/05/26 11:16:51;;;;;;;5.30;2.58;;;;;;;17.63;87.88;99706.80;1713664;82;21010;-82
2021/05/26 11:19:27;;;;;;;6.05;2.55;;;;;;;17.63;87.36;99711.77;1730176;82;21092;-78
2021/05/26 11:22:03;;;;;;;4.85;2.62;;;;;;;17.66;87.25;99713.86;1722824;82;21142;-77
2021/05/26 11:24:34;;;;;;;4.60;2.65;;;;;;;17.76;87.71;99721.64;1659376;85;21034;-80
2021/05/26 11:27:15;;;;;;;6.42;2.80;;;;;;;17.90;87.88;99718.98;1719444;82;21584;-84
2021/05/26 11:29:41;;;;;;;4.92;3.30;;;;;;;18.07;87.25;99717.99;1737272;82;21503;-80
2021/05/26 11:32:14;;;;;;;5.65;4.08;;;;;;;18.23;86.73;99718.54;1747033;82;21128;-79
2021/05/26 11:34:44;;;;;;;3.25;2.95;;;;;;;18.32;85.68;99715.78;1733730;81;21013;-82
2021/05/26 11:37:35;;;;;;;5.58;3.15;;;;;;;18.43;84.21;99705.70;1751895;80;20942;-83
2021/05/26 11:40:05;;;;;;;5.10;3.70;;;;;;;18.53;84.46;99697.92;1720790;80;21068;-82
2021/05/26 11:42:33;;;;;;;5.47;3.35;;;;;;;18.65;84.11;99708.94;1722070;82;20949;-80
2021/05/26 11:45:05;;;;;;;5.92;3.98;;;;;;;18.69;82.67;99710.63;1723326;82;22084;-84
2021/05/26 11:47:41;;;;;;;5.87;3.92;;;;;;;18.64;82.34;99717.87;1717518;82;21114;-84
2021/05/26 11:50:19;;;;;;;7.17;3.80;;;;;;;18.61;82.32;99723.35;1713950;82;20984;-79
2021/05/26 11:53:13;;;;;;;5.75;4.15;;;;;;;18.54;82.24;99719.80;1726948;82;21056;-81
2021/05/26 11:55:43;;;;;;;8.85;4.78;;;;;;;18.53;82.06;99734.87;1722533;82;20949;-81